createdAt,value
2017-12-31T00:00:05.591Z,99.90
2017-12-31T00:02:35.178Z,99.90
2017-12-31T00:05:03.982Z,99.90
2017-12-31T00:07:32.755Z,99.90
2017-12-31T00:10:01.425Z,99.90
2017-12-31T00:12:30.189Z,99.90
2017-12-31T00:14:59.072Z,99.90
2017-12-31T00:17:27.511Z,99.90
2017-12-31T00:19:56.070Z,99.90
2017-12-31T00:22:24.463Z,99.90
2017-12-31T00:24:52.936Z,99.90
2017-12-31T00:27:21.344Z,99.90
2017-12-31T00:29:49.741Z,99.90
2017-12-31T00:32:19.200Z,99.90
2017-12-31T00:34:47.605Z,99.90
2017-12-31T00:37:15.994Z,99.90
2017-12-31T00:39:44.386Z,99.90
2017-12-31T00:42:13.530Z,99.90
2017-12-31T00:44:42.066Z,99.90
2017-12-31T00:47:11.217Z,99.90
2017-12-31T00:49:39.666Z,99.90
2017-12-31T00:52:08.131Z,99.90
2017-12-31T00:54:37.267Z,99.90
2017-12-31T00:57:05.777Z,99.90
2017-12-31T00:59:34.155Z,99.90
2017-12-31T01:02:02.531Z,99.90
2017-12-31T01:04:30.935Z,99.90
2017-12-31T01:07:00.134Z,99.90
2017-12-31T01:09:28.617Z,99.90
2017-12-31T01:11:57.758Z,99.90
2017-12-31T01:14:26.133Z,99.90
2017-12-31T01:16:54.600Z,99.90
2017-12-31T01:19:22.978Z,99.90
2017-12-31T01:21:51.660Z,99.90
2017-12-31T01:24:20.038Z,99.90
2017-12-31T01:26:48.437Z,99.90
2017-12-31T01:29:16.821Z,99.90
2017-12-31T01:31:45.195Z,99.90
2017-12-31T01:34:13.626Z,99.90
2017-12-31T01:36:42.766Z,99.90
2017-12-31T01:39:11.132Z,99.90
2017-12-31T01:41:39.522Z,99.90
2017-12-31T01:44:07.904Z,99.90
2017-12-31T01:46:36.315Z,99.90
2017-12-31T01:49:04.714Z,99.90
2017-12-31T01:51:33.857Z,99.90
2017-12-31T01:54:02.242Z,99.90
2017-12-31T01:56:30.633Z,99.90
2017-12-31T01:58:59.301Z,99.90
2017-12-31T02:01:27.679Z,99.90
2017-12-31T02:03:56.138Z,99.90
2017-12-31T02:06:24.616Z,99.90
2017-12-31T02:08:52.995Z,99.90
2017-12-31T02:11:21.516Z,99.90
2017-12-31T02:13:49.897Z,99.90
2017-12-31T02:16:18.305Z,99.90
2017-12-31T02:18:46.712Z,99.90
2017-12-31T02:21:15.084Z,99.90
2017-12-31T02:23:43.502Z,99.90
2017-12-31T02:26:11.869Z,99.90
2017-12-31T02:28:40.242Z,99.90
2017-12-31T02:31:08.642Z,99.90
2017-12-31T02:33:37.058Z,99.90
2017-12-31T02:36:06.711Z,99.90
2017-12-31T02:38:35.100Z,99.90
2017-12-31T02:41:03.550Z,99.90
2017-12-31T02:43:31.950Z,99.90
2017-12-31T02:46:00.341Z,99.90
2017-12-31T02:48:28.845Z,99.90
2017-12-31T02:50:57.214Z,99.90
2017-12-31T02:53:25.578Z,99.90
2017-12-31T02:55:53.968Z,99.90
2017-12-31T02:58:22.346Z,99.90
2017-12-31T03:00:50.984Z,99.90
2017-12-31T03:03:19.360Z,99.90
2017-12-31T03:05:47.757Z,99.90
2017-12-31T03:08:16.464Z,99.90
2017-12-31T03:10:45.146Z,99.90
2017-12-31T03:13:19.370Z,99.90
2017-12-31T03:15:47.786Z,99.90
2017-12-31T03:18:16.931Z,99.90
2017-12-31T03:20:45.326Z,99.90
2017-12-31T03:23:13.703Z,99.90
2017-12-31T03:25:42.136Z,99.90
2017-12-31T03:28:10.582Z,99.90
2017-12-31T03:30:39.440Z,99.90
2017-12-31T03:33:08.897Z,99.90
2017-12-31T03:35:38.109Z,99.90
2017-12-31T03:38:07.024Z,99.90
2017-12-31T03:40:35.902Z,99.90
2017-12-31T03:43:04.622Z,99.90
2017-12-31T03:45:33.030Z,99.90
2017-12-31T03:48:02.469Z,99.90
2017-12-31T03:50:30.922Z,99.90
2017-12-31T03:53:00.521Z,99.90
2017-12-31T03:55:29.910Z,99.90
2017-12-31T03:57:58.479Z,99.90
2017-12-31T04:00:27.959Z,99.90
2017-12-31T04:02:56.554Z,99.90
2017-12-31T04:05:26.265Z,99.90
2017-12-31T04:07:54.771Z,99.90
2017-12-31T04:10:23.396Z,99.90
2017-12-31T04:12:51.976Z,99.90
2017-12-31T04:15:20.572Z,99.90
2017-12-31T04:17:49.262Z,99.90
2017-12-31T04:20:17.813Z,99.90
2017-12-31T04:22:47.012Z,99.90
2017-12-31T04:25:15.789Z,99.90
2017-12-31T04:27:44.425Z,99.90
2017-12-31T04:30:13.011Z,99.90
2017-12-31T04:32:41.801Z,99.90
2017-12-31T04:35:10.660Z,99.90
2017-12-31T04:37:39.369Z,99.90
2017-12-31T04:40:08.023Z,99.90
2017-12-31T04:42:36.625Z,99.90
2017-12-31T04:45:05.117Z,99.90
2017-12-31T04:47:34.085Z,99.90
2017-12-31T04:50:02.566Z,99.90
2017-12-31T04:52:31.281Z,99.90
2017-12-31T04:55:00.177Z,99.90
2017-12-31T04:57:28.546Z,99.90
2017-12-31T04:59:56.930Z,99.90
2017-12-31T05:02:25.400Z,99.90
2017-12-31T05:04:54.023Z,99.90
2017-12-31T05:07:22.415Z,99.90
2017-12-31T05:09:51.562Z,99.90
2017-12-31T05:12:19.963Z,99.90
2017-12-31T05:14:48.345Z,99.90
2017-12-31T05:17:16.833Z,99.90
2017-12-31T05:19:45.215Z,99.90
2017-12-31T05:22:13.584Z,99.90
2017-12-31T05:24:42.097Z,99.90
2017-12-31T05:27:11.235Z,99.90
2017-12-31T05:29:39.688Z,99.90
2017-12-31T05:32:08.051Z,99.90
2017-12-31T05:34:36.616Z,99.90
2017-12-31T05:37:05.023Z,99.90
2017-12-31T05:39:33.409Z,99.90
2017-12-31T05:42:02.114Z,99.90
2017-12-31T05:44:30.481Z,99.90
2017-12-31T05:46:58.874Z,99.90
2017-12-31T05:49:27.263Z,99.90
2017-12-31T05:51:55.627Z,99.90
2017-12-31T05:54:24.056Z,99.90
2017-12-31T05:56:59.137Z,99.90
2017-12-31T05:59:27.929Z,99.90
2017-12-31T06:01:56.309Z,99.90
2017-12-31T06:04:24.681Z,99.90
2017-12-31T06:06:53.082Z,99.90
2017-12-31T06:09:22.222Z,99.90
2017-12-31T06:11:51.409Z,99.90
2017-12-31T06:14:20.561Z,99.90
2017-12-31T06:16:48.942Z,99.90
2017-12-31T06:19:17.345Z,99.90
2017-12-31T06:21:45.718Z,99.90
2017-12-31T06:24:14.213Z,99.90
2017-12-31T06:26:42.590Z,99.90
2017-12-31T06:29:10.977Z,99.90
2017-12-31T06:31:39.364Z,99.90
2017-12-31T06:34:08.503Z,99.90
2017-12-31T06:36:37.166Z,99.90
2017-12-31T06:39:05.675Z,99.90
2017-12-31T06:41:34.069Z,99.90
2017-12-31T06:44:02.479Z,99.90
2017-12-31T06:46:31.620Z,99.90
2017-12-31T06:49:00.106Z,99.90
2017-12-31T06:51:28.692Z,99.90
2017-12-31T06:53:57.073Z,99.90
2017-12-31T06:56:25.474Z,99.90
2017-12-31T06:58:53.854Z,99.90
2017-12-31T07:01:22.253Z,99.90
2017-12-31T07:03:51.400Z,99.90
2017-12-31T07:06:19.772Z,99.90
2017-12-31T07:08:48.146Z,99.90
2017-12-31T07:11:16.514Z,99.90
2017-12-31T07:13:45.013Z,99.90
2017-12-31T07:16:13.386Z,99.90
2017-12-31T07:18:41.797Z,99.90
2017-12-31T07:21:10.314Z,99.90
2017-12-31T07:23:39.444Z,99.90
2017-12-31T07:26:07.935Z,99.90
2017-12-31T07:28:36.319Z,99.90
2017-12-31T07:31:04.690Z,99.90
2017-12-31T07:33:33.083Z,99.90
2017-12-31T07:36:01.466Z,99.90
2017-12-31T07:38:29.869Z,99.90
2017-12-31T07:40:58.238Z,99.90
2017-12-31T07:43:26.610Z,99.90
2017-12-31T07:45:55.004Z,99.90
2017-12-31T07:48:23.366Z,99.90
2017-12-31T07:50:51.775Z,99.90
2017-12-31T07:53:20.147Z,99.90
2017-12-31T07:55:49.288Z,99.90
2017-12-31T07:58:17.673Z,99.90
2017-12-31T08:00:46.042Z,99.90
2017-12-31T08:03:14.544Z,99.90
2017-12-31T08:05:42.927Z,99.90
2017-12-31T08:08:11.317Z,99.90
2017-12-31T08:10:39.722Z,99.90
2017-12-31T08:13:08.853Z,99.90
2017-12-31T08:15:37.347Z,99.90
2017-12-31T08:18:05.714Z,99.90
2017-12-31T08:20:34.082Z,99.90
2017-12-31T08:23:02.512Z,99.90
2017-12-31T08:25:30.898Z,99.90
2017-12-31T08:27:59.644Z,99.90
2017-12-31T08:30:28.014Z,99.90
2017-12-31T08:32:56.388Z,99.90
2017-12-31T08:35:24.786Z,99.90
2017-12-31T08:37:53.157Z,99.90
2017-12-31T08:40:21.587Z,99.90
2017-12-31T08:42:50.733Z,99.90
2017-12-31T08:45:19.098Z,99.90
2017-12-31T08:47:47.489Z,99.90
2017-12-31T08:50:15.858Z,99.90
2017-12-31T08:52:44.265Z,99.90
2017-12-31T08:55:12.653Z,99.90
2017-12-31T08:57:41.022Z,99.90
2017-12-31T09:00:09.417Z,99.90
2017-12-31T09:02:38.574Z,99.90
2017-12-31T09:05:07.154Z,99.90
2017-12-31T09:07:35.525Z,99.90
2017-12-31T09:10:03.901Z,99.90
2017-12-31T09:12:32.303Z,99.90
2017-12-31T09:15:00.675Z,99.90
2017-12-31T09:17:29.186Z,99.90
2017-12-31T09:19:57.566Z,99.90
2017-12-31T09:22:25.935Z,99.90
2017-12-31T09:24:54.338Z,99.90
2017-12-31T09:27:23.474Z,99.90
2017-12-31T09:29:52.020Z,99.90
2017-12-31T09:32:20.419Z,99.90
2017-12-31T09:34:48.824Z,99.90
2017-12-31T09:37:17.217Z,99.90
2017-12-31T09:39:45.604Z,99.90
2017-12-31T09:42:14.234Z,99.90
2017-12-31T09:44:42.619Z,99.90
2017-12-31T09:47:10.995Z,99.80
2017-12-31T09:49:39.398Z,99.70
2017-12-31T09:52:07.798Z,99.90
2017-12-31T09:54:36.461Z,99.50
2017-12-31T09:57:04.837Z,98.70
2017-12-31T09:59:33.209Z,98.10
2017-12-31T10:02:01.706Z,98.00
2017-12-31T10:04:30.083Z,98.00
2017-12-31T10:06:58.758Z,97.70
2017-12-31T10:09:27.134Z,97.90
2017-12-31T10:11:55.522Z,97.80
2017-12-31T10:14:23.952Z,98.40
2017-12-31T10:16:53.088Z,97.70
2017-12-31T10:19:21.886Z,97.70
2017-12-31T10:21:50.261Z,96.50
2017-12-31T10:24:18.626Z,96.10
2017-12-31T10:26:47.016Z,96.40
2017-12-31T10:29:15.408Z,96.60
2017-12-31T10:31:43.909Z,96.40
2017-12-31T10:34:12.306Z,95.50
2017-12-31T10:36:41.551Z,94.70
2017-12-31T10:39:09.966Z,94.70
2017-12-31T10:41:38.362Z,94.90
2017-12-31T10:44:07.750Z,94.00
2017-12-31T10:46:36.130Z,94.00
2017-12-31T10:49:05.303Z,94.20
2017-12-31T10:51:33.730Z,94.00
2017-12-31T10:54:02.876Z,94.90
2017-12-31T10:56:31.422Z,94.90
2017-12-31T10:59:01.294Z,96.30
2017-12-31T11:01:29.662Z,97.50
2017-12-31T11:03:58.118Z,97.70
2017-12-31T11:06:26.508Z,97.60
2017-12-31T11:08:55.229Z,98.10
2017-12-31T11:11:23.681Z,98.40
2017-12-31T11:13:52.149Z,99.50
2017-12-31T11:16:20.552Z,99.70
2017-12-31T11:18:48.925Z,99.90
2017-12-31T11:21:17.694Z,99.90
2017-12-31T11:23:46.063Z,99.90
2017-12-31T11:26:14.544Z,99.90
2017-12-31T11:28:43.231Z,99.90
2017-12-31T11:31:11.620Z,99.90
2017-12-31T11:33:40.201Z,99.90
2017-12-31T11:36:08.579Z,99.90
2017-12-31T11:38:37.015Z,99.90
2017-12-31T11:41:05.433Z,99.90
2017-12-31T11:43:33.995Z,99.90
2017-12-31T11:46:02.811Z,99.90
2017-12-31T11:48:32.358Z,99.90
2017-12-31T11:51:00.737Z,99.90
2017-12-31T11:53:29.225Z,99.90
2017-12-31T11:55:57.886Z,99.90
2017-12-31T11:58:26.305Z,99.90
2017-12-31T12:00:54.709Z,99.90
2017-12-31T12:03:23.093Z,99.90
2017-12-31T12:05:52.182Z,99.90
2017-12-31T12:08:20.718Z,99.90
2017-12-31T12:10:49.134Z,99.90
2017-12-31T12:13:17.601Z,99.90
2017-12-31T12:15:46.306Z,99.90
2017-12-31T12:18:14.708Z,99.90
2017-12-31T12:20:43.464Z,99.90
2017-12-31T12:23:11.859Z,99.90
2017-12-31T12:25:40.247Z,99.90
2017-12-31T12:28:08.622Z,99.90
2017-12-31T12:30:37.157Z,99.90
2017-12-31T12:33:06.471Z,99.90
2017-12-31T12:35:38.636Z,99.90
2017-12-31T12:38:15.081Z,99.90
2017-12-31T12:40:48.178Z,99.90
2017-12-31T12:43:26.812Z,99.90
2017-12-31T12:46:01.474Z,99.90
2017-12-31T12:48:33.461Z,99.90
2017-12-31T12:51:07.448Z,99.90
2017-12-31T12:53:40.893Z,99.90
2017-12-31T12:56:14.428Z,99.90
2017-12-31T12:58:46.489Z,99.90
2017-12-31T13:01:20.851Z,99.90
2017-12-31T13:03:54.514Z,99.90
2017-12-31T13:06:31.529Z,99.90
2017-12-31T13:09:05.750Z,99.90
2017-12-31T13:11:42.196Z,99.90
2017-12-31T13:14:19.730Z,99.90
2017-12-31T13:16:55.110Z,99.90
2017-12-31T13:19:32.577Z,99.90
2017-12-31T13:22:14.912Z,99.70
2017-12-31T13:24:53.720Z,99.60
2017-12-31T13:27:29.665Z,99.10
2017-12-31T13:30:05.268Z,98.10
2017-12-31T13:32:48.399Z,97.20
2017-12-31T13:35:41.246Z,96.20
2017-12-31T13:38:35.385Z,95.40
2017-12-31T13:41:26.026Z,95.90
2017-12-31T13:44:21.416Z,96.40
2017-12-31T13:47:01.365Z,96.70
2017-12-31T13:49:54.341Z,96.70
2017-12-31T13:52:36.689Z,97.00
2017-12-31T13:55:28.648Z,97.30
2017-12-31T13:58:07.072Z,97.80
2017-12-31T14:01:00.254Z,98.00
2017-12-31T14:03:49.436Z,98.00
2017-12-31T14:06:45.163Z,98.30
2017-12-31T14:09:23.089Z,98.30
2017-12-31T14:12:00.318Z,98.50
2017-12-31T14:14:49.210Z,98.70
2017-12-31T14:17:30.501Z,98.60
2017-12-31T14:20:00.199Z,99.10
2017-12-31T14:22:29.086Z,99.10
2017-12-31T14:24:57.932Z,99.20
2017-12-31T14:27:26.898Z,99.00
2017-12-31T14:29:56.342Z,99.40
2017-12-31T14:32:25.503Z,99.50
2017-12-31T14:34:55.222Z,99.90
2017-12-31T14:37:26.093Z,99.90
2017-12-31T14:39:55.027Z,99.90
2017-12-31T14:42:23.978Z,99.90
2017-12-31T14:44:52.590Z,99.90
2017-12-31T14:47:21.645Z,99.90
2017-12-31T14:49:50.387Z,99.90
2017-12-31T14:52:19.051Z,99.90
2017-12-31T14:54:48.677Z,99.90
2017-12-31T14:57:17.722Z,99.90
2017-12-31T14:59:46.481Z,99.90
2017-12-31T15:02:16.073Z,99.90
2017-12-31T15:04:45.630Z,99.90
2017-12-31T15:07:17.023Z,99.90
2017-12-31T15:09:49.018Z,99.90
2017-12-31T15:12:19.836Z,99.90
2017-12-31T15:14:51.779Z,99.90
2017-12-31T15:17:22.475Z,99.90
2017-12-31T15:19:54.317Z,99.90
2017-12-31T15:22:27.017Z,99.90
2017-12-31T15:24:56.511Z,99.90
2017-12-31T15:27:27.670Z,99.90
2017-12-31T15:30:06.756Z,99.90
2017-12-31T15:32:45.494Z,99.90
2017-12-31T15:35:20.960Z,99.90
2017-12-31T15:37:59.748Z,99.90
2017-12-31T15:40:37.145Z,99.90
2017-12-31T15:43:13.700Z,99.90
2017-12-31T15:45:50.544Z,99.90
2017-12-31T15:48:29.174Z,99.90
2017-12-31T15:50:58.302Z,99.90
2017-12-31T15:53:26.779Z,99.90
2017-12-31T15:55:55.198Z,99.90
2017-12-31T15:58:23.579Z,99.90
2017-12-31T16:00:51.966Z,99.90
2017-12-31T16:03:21.493Z,99.90
2017-12-31T16:05:50.282Z,99.90
2017-12-31T16:08:18.655Z,99.90
2017-12-31T16:10:47.826Z,99.90
2017-12-31T16:13:16.209Z,99.90
2017-12-31T16:15:45.050Z,99.90
2017-12-31T16:18:13.525Z,99.90
2017-12-31T16:20:42.015Z,99.90
2017-12-31T16:23:10.859Z,99.90
2017-12-31T16:25:40.103Z,99.90
2017-12-31T16:28:09.918Z,99.90
2017-12-31T16:30:38.286Z,99.90
2017-12-31T16:33:06.658Z,99.90
2017-12-31T16:35:35.070Z,99.90
2017-12-31T16:38:03.443Z,99.90
2017-12-31T16:40:32.103Z,99.90
2017-12-31T16:43:00.505Z,99.90
2017-12-31T16:45:29.681Z,99.90
2017-12-31T16:47:58.353Z,99.90
2017-12-31T16:50:26.944Z,99.90
2017-12-31T16:52:55.683Z,99.90
2017-12-31T16:55:25.043Z,99.90
2017-12-31T16:57:53.645Z,99.90
2017-12-31T17:00:23.338Z,99.90
2017-12-31T17:02:55.230Z,99.90
2017-12-31T17:05:24.728Z,99.90
2017-12-31T17:07:54.333Z,99.90
2017-12-31T17:10:27.402Z,99.90
2017-12-31T17:12:56.672Z,99.90
2017-12-31T17:15:32.208Z,99.90
2017-12-31T17:18:01.277Z,99.90
2017-12-31T17:20:29.926Z,99.90
2017-12-31T17:22:58.670Z,99.90
2017-12-31T17:25:27.373Z,99.90
2017-12-31T17:27:56.032Z,99.90
2017-12-31T17:30:24.642Z,99.90
2017-12-31T17:32:53.436Z,99.90
2017-12-31T17:35:22.534Z,99.90
2017-12-31T17:37:52.109Z,99.90
2017-12-31T17:40:21.530Z,99.90
2017-12-31T17:45:48.193Z,99.90
2017-12-31T17:48:23.852Z,99.90
2017-12-31T17:50:53.544Z,99.90
2017-12-31T17:53:22.730Z,99.90
2017-12-31T17:55:52.065Z,99.90
2017-12-31T17:58:20.646Z,99.90
2017-12-31T18:00:49.301Z,99.90
2017-12-31T18:03:17.936Z,99.90
2017-12-31T18:05:46.733Z,99.90
2017-12-31T18:08:15.388Z,99.90
2017-12-31T18:10:43.996Z,99.90
2017-12-31T18:13:12.626Z,99.90
2017-12-31T18:15:41.274Z,99.90
2017-12-31T18:18:09.998Z,99.90
2017-12-31T18:20:38.599Z,99.90
2017-12-31T18:23:07.224Z,99.90
2017-12-31T18:25:35.900Z,99.90
2017-12-31T18:28:04.544Z,99.90
2017-12-31T18:30:33.436Z,99.90
2017-12-31T18:33:02.063Z,99.90
2017-12-31T18:35:30.653Z,99.90
2017-12-31T18:37:59.314Z,99.90
2017-12-31T18:40:27.924Z,99.90
2017-12-31T18:42:57.333Z,99.90
2017-12-31T18:45:26.678Z,99.90
2017-12-31T18:47:55.348Z,99.90
2017-12-31T18:50:23.921Z,99.90
2017-12-31T18:52:52.496Z,99.90
2017-12-31T18:55:21.917Z,99.90
2017-12-31T18:57:50.529Z,99.90
2017-12-31T19:00:19.385Z,99.90
2017-12-31T19:02:48.023Z,99.90
2017-12-31T19:05:16.805Z,99.90
2017-12-31T19:07:45.529Z,99.90
2017-12-31T19:10:14.888Z,99.90
2017-12-31T19:12:43.556Z,99.90
2017-12-31T19:15:12.137Z,99.90
2017-12-31T19:17:40.719Z,99.90
2017-12-31T19:20:09.388Z,99.90
2017-12-31T19:22:38.020Z,99.90
2017-12-31T19:25:06.766Z,99.90
2017-12-31T19:27:35.361Z,99.90
2017-12-31T19:30:03.959Z,99.90
2017-12-31T19:32:32.364Z,99.90
2017-12-31T19:35:00.755Z,99.90
2017-12-31T19:37:29.496Z,99.90
2017-12-31T19:39:57.874Z,99.90
2017-12-31T19:42:26.243Z,99.90
2017-12-31T19:44:54.627Z,99.90
2017-12-31T19:47:22.993Z,99.90
2017-12-31T19:49:51.569Z,99.90
2017-12-31T19:52:19.941Z,99.90
2017-12-31T19:54:48.407Z,99.90
2017-12-31T19:57:16.805Z,99.90
2017-12-31T19:59:45.943Z,99.90
2017-12-31T20:02:14.396Z,99.90
2017-12-31T20:04:42.794Z,99.90
2017-12-31T20:07:11.656Z,99.90
2017-12-31T20:09:40.042Z,99.90
2017-12-31T20:12:08.417Z,99.90
2017-12-31T20:14:36.814Z,99.90
2017-12-31T20:17:05.205Z,99.90
2017-12-31T20:19:33.875Z,99.90
2017-12-31T20:22:02.427Z,99.90
2017-12-31T20:24:31.574Z,99.90
2017-12-31T20:27:00.088Z,99.90
2017-12-31T20:29:28.488Z,99.90
2017-12-31T20:31:57.062Z,99.90
2017-12-31T20:34:25.484Z,99.90
2017-12-31T20:36:55.802Z,99.90
2017-12-31T20:39:24.166Z,99.90
2017-12-31T20:41:52.758Z,99.90
2017-12-31T20:44:21.311Z,99.90
2017-12-31T20:46:50.811Z,99.90
2017-12-31T20:49:19.482Z,99.90
2017-12-31T20:51:48.337Z,99.90
2017-12-31T20:54:16.950Z,99.90
2017-12-31T20:56:45.333Z,99.90
2017-12-31T20:59:13.752Z,99.90
2017-12-31T21:01:42.163Z,99.90
2017-12-31T21:04:10.827Z,99.90
2017-12-31T21:06:40.828Z,99.90
2017-12-31T21:09:11.217Z,99.90
2017-12-31T21:11:39.924Z,99.90
2017-12-31T21:14:09.942Z,99.90
2017-12-31T21:16:38.365Z,99.90
2017-12-31T21:19:07.501Z,99.90
2017-12-31T21:21:36.685Z,99.90
2017-12-31T21:24:05.056Z,99.90
2017-12-31T21:26:33.449Z,99.90
2017-12-31T21:29:01.875Z,99.90
2017-12-31T21:31:30.455Z,99.90
2017-12-31T21:33:59.695Z,99.90
2017-12-31T21:36:28.334Z,99.90
2017-12-31T21:38:56.939Z,99.90
2017-12-31T21:41:25.690Z,99.90
2017-12-31T21:43:54.579Z,99.90
2017-12-31T21:46:22.990Z,99.90
2017-12-31T21:48:51.439Z,99.90
2017-12-31T21:51:20.183Z,99.90
2017-12-31T21:53:49.369Z,99.90
2017-12-31T21:56:17.861Z,99.90
2017-12-31T21:58:46.276Z,99.90
2017-12-31T22:01:15.517Z,99.90
2017-12-31T22:03:43.938Z,99.90
2017-12-31T22:06:12.374Z,99.90
2017-12-31T22:08:40.845Z,99.90
2017-12-31T22:11:09.242Z,99.90
2017-12-31T22:13:37.998Z,99.90
2017-12-31T22:16:07.222Z,99.90
2017-12-31T22:18:35.611Z,99.90
2017-12-31T22:21:04.081Z,99.90
2017-12-31T22:23:32.469Z,99.90
2017-12-31T22:26:01.055Z,99.90
2017-12-31T22:28:29.538Z,99.90
2017-12-31T22:30:57.925Z,99.90
2017-12-31T22:33:26.599Z,99.90
2017-12-31T22:35:54.974Z,99.90
2017-12-31T22:38:23.406Z,99.90
2017-12-31T22:40:51.863Z,99.90
2017-12-31T22:43:20.263Z,99.90
2017-12-31T22:45:49.610Z,99.90
2017-12-31T22:48:17.990Z,99.90
2017-12-31T22:50:46.366Z,99.90
2017-12-31T22:53:14.757Z,99.90
2017-12-31T22:58:18.525Z,99.90
2017-12-31T23:00:46.900Z,99.90
2017-12-31T23:03:16.049Z,99.90
2017-12-31T23:05:45.225Z,99.90
2017-12-31T23:08:13.589Z,99.90
2017-12-31T23:10:42.031Z,99.90
2017-12-31T23:13:12.142Z,99.90
2017-12-31T23:15:40.525Z,99.90
2017-12-31T23:18:08.927Z,99.90
2017-12-31T23:20:38.089Z,99.90
2017-12-31T23:23:06.612Z,99.90
2017-12-31T23:25:34.993Z,99.90
2017-12-31T23:28:03.406Z,99.90
2017-12-31T23:30:31.815Z,99.90
2017-12-31T23:33:00.198Z,99.90
2017-12-31T23:35:28.633Z,99.90
2017-12-31T23:37:57.002Z,99.90
2017-12-31T23:40:25.378Z,99.90
2017-12-31T23:42:53.770Z,99.90
2017-12-31T23:45:22.143Z,99.90
2017-12-31T23:47:50.842Z,99.90
2017-12-31T23:50:19.230Z,99.90
2017-12-31T23:52:47.623Z,99.90
2017-12-31T23:55:16.038Z,99.90
2017-12-31T23:57:45.182Z,99.90
